sensor_id;sensor_type;location;lat;lon;timestamp;P1;durP1;ratioP1;P2;durP2;ratioP2
4248;SDS011;8404;48.752;12.922;2022-12-11T00:00:55;33.35;;;17.88;;
4248;SDS011;8404;48.752;12.922;2022-12-11T00:03:23;34.15;;;19.13;;
4248;SDS011;8404;48.752;12.922;2022-12-11T00:05:51;28.98;;;17.02;;
4248;SDS011;8404;48.752;12.922;2022-12-11T00:08:19;33.13;;;17.48;;
4248;SDS011;8404;48.752;12.922;2022-12-11T00:10:47;32.65;;;17.75;;
4248;SDS011;8404;48.752;12.922;2022-12-11T00:13:15;32.92;;;17.20;;
4248;SDS011;8404;48.752;12.922;2022-12-11T00:15:43;32.17;;;18.23;;
4248;SDS011;8404;48.752;12.922;2022-12-11T00:18:13;32.08;;;17.27;;
4248;SDS011;8404;48.752;12.922;2022-12-11T00:20:41;34.53;;;17.40;;
4248;SDS011;8404;48.752;12.922;2022-12-11T00:23:10;36.47;;;17.20;;
4248;SDS011;8404;48.752;12.922;2022-12-11T00:25:40;32.25;;;17.00;;
4248;SDS011;8404;48.752;12.922;2022-12-11T00:28:09;29.25;;;17.20;;
4248;SDS011;8404;48.752;12.922;2022-12-11T00:30:38;29.63;;;15.82;;
4248;SDS011;8404;48.752;12.922;2022-12-11T00:33:08;31.30;;;15.75;;
4248;SDS011;8404;48.752;12.922;2022-12-11T00:35:38;29.90;;;15.98;;
4248;SDS011;8404;48.752;12.922;2022-12-11T00:38:06;30.52;;;15.98;;
4248;SDS011;8404;48.752;12.922;2022-12-11T00:40:35;33.20;;;16.70;;
4248;SDS011;8404;48.752;12.922;2022-12-11T00:43:03;29.23;;;15.40;;
4248;SDS011;8404;48.752;12.922;2022-12-11T00:45:34;29.83;;;14.73;;
4248;SDS011;8404;48.752;12.922;2022-12-11T00:48:03;27.50;;;15.40;;
4248;SDS011;8404;48.752;12.922;2022-12-11T00:50:31;28.38;;;15.32;;
4248;SDS011;8404;48.752;12.922;2022-12-11T00:53:01;30.17;;;15.68;;
4248;SDS011;8404;48.752;12.922;2022-12-11T00:55:30;26.70;;;15.27;;
4248;SDS011;8404;48.752;12.922;2022-12-11T00:58:02;26.17;;;14.23;;
4248;SDS011;8404;48.752;12.922;2022-12-11T01:00:30;28.40;;;15.50;;
4248;SDS011;8404;48.752;12.922;2022-12-11T01:02:59;22.65;;;13.63;;
4248;SDS011;8404;48.752;12.922;2022-12-11T01:05:27;24.80;;;14.40;;
4248;SDS011;8404;48.752;12.922;2022-12-11T01:07:55;25.48;;;15.68;;
4248;SDS011;8404;48.752;12.922;2022-12-11T01:10:25;26.40;;;15.35;;
4248;SDS011;8404;48.752;12.922;2022-12-11T01:12:53;30.00;;;15.48;;
4248;SDS011;8404;48.752;12.922;2022-12-11T01:15:23;29.50;;;15.23;;
4248;SDS011;8404;48.752;12.922;2022-12-11T01:17:53;26.13;;;14.93;;
4248;SDS011;8404;48.752;12.922;2022-12-11T01:20:22;22.75;;;13.20;;
4248;SDS011;8404;48.752;12.922;2022-12-11T01:22:51;21.10;;;13.40;;
4248;SDS011;8404;48.752;12.922;2022-12-11T01:25:20;21.83;;;13.07;;
4248;SDS011;8404;48.752;12.922;2022-12-11T01:27:50;24.08;;;13.57;;
4248;SDS011;8404;48.752;12.922;2022-12-11T01:30:19;22.33;;;13.05;;
4248;SDS011;8404;48.752;12.922;2022-12-11T01:32:48;21.40;;;13.38;;
4248;SDS011;8404;48.752;12.922;2022-12-11T01:35:17;23.15;;;13.63;;
4248;SDS011;8404;48.752;12.922;2022-12-11T01:37:45;20.55;;;12.45;;
4248;SDS011;8404;48.752;12.922;2022-12-11T01:40:14;22.58;;;12.48;;
4248;SDS011;8404;48.752;12.922;2022-12-11T01:42:44;25.20;;;13.65;;
4248;SDS011;8404;48.752;12.922;2022-12-11T01:45:21;23.10;;;13.55;;
4248;SDS011;8404;48.752;12.922;2022-12-11T01:48:05;21.55;;;12.85;;
4248;SDS011;8404;48.752;12.922;2022-12-11T01:50:37;25.05;;;13.85;;
4248;SDS011;8404;48.752;12.922;2022-12-11T01:53:11;24.38;;;13.43;;
4248;SDS011;8404;48.752;12.922;2022-12-11T01:55:42;25.80;;;13.80;;
4248;SDS011;8404;48.752;12.922;2022-12-11T01:58:13;23.15;;;13.30;;
4248;SDS011;8404;48.752;12.922;2022-12-11T02:00:43;26.67;;;13.70;;
4248;SDS011;8404;48.752;12.922;2022-12-11T02:03:12;24.65;;;12.52;;
4248;SDS011;8404;48.752;12.922;2022-12-11T02:05:40;22.05;;;13.00;;
4248;SDS011;8404;48.752;12.922;2022-12-11T02:08:08;23.75;;;13.90;;
4248;SDS011;8404;48.752;12.922;2022-12-11T02:10:43;23.13;;;13.52;;
4248;SDS011;8404;48.752;12.922;2022-12-11T02:13:20;22.48;;;13.43;;
4248;SDS011;8404;48.752;12.922;2022-12-11T02:15:57;22.45;;;13.75;;
4248;SDS011;8404;48.752;12.922;2022-12-11T02:18:33;24.20;;;13.77;;
4248;SDS011;8404;48.752;12.922;2022-12-11T02:21:10;21.38;;;12.65;;
4248;SDS011;8404;48.752;12.922;2022-12-11T02:24:03;28.77;;;15.10;;
4248;SDS011;8404;48.752;12.922;2022-12-11T02:26:58;23.15;;;12.07;;
4248;SDS011;8404;48.752;12.922;2022-12-11T02:29:41;21.25;;;12.30;;
4248;SDS011;8404;48.752;12.922;2022-12-11T02:32:16;21.50;;;12.93;;
4248;SDS011;8404;48.752;12.922;2022-12-11T02:34:51;21.70;;;12.73;;
4248;SDS011;8404;48.752;12.922;2022-12-11T02:37:25;23.33;;;13.65;;
4248;SDS011;8404;48.752;12.922;2022-12-11T02:39:56;19.75;;;12.30;;
4248;SDS011;8404;48.752;12.922;2022-12-11T02:42:26;21.23;;;12.57;;
4248;SDS011;8404;48.752;12.922;2022-12-11T02:44:59;18.38;;;11.18;;
4248;SDS011;8404;48.752;12.922;2022-12-11T02:47:28;19.60;;;12.27;;
4248;SDS011;8404;48.752;12.922;2022-12-11T02:49:58;19.17;;;11.57;;
4248;SDS011;8404;48.752;12.922;2022-12-11T02:52:29;25.23;;;13.50;;
4248;SDS011;8404;48.752;12.922;2022-12-11T02:54:58;23.25;;;13.40;;
4248;SDS011;8404;48.752;12.922;2022-12-11T02:57:30;18.00;;;12.07;;
4248;SDS011;8404;48.752;12.922;2022-12-11T03:00:05;20.73;;;12.32;;
4248;SDS011;8404;48.752;12.922;2022-12-11T03:02:35;22.15;;;12.45;;
4248;SDS011;8404;48.752;12.922;2022-12-11T03:05:03;20.25;;;12.02;;
4248;SDS011;8404;48.752;12.922;2022-12-11T03:07:34;19.10;;;11.80;;
4248;SDS011;8404;48.752;12.922;2022-12-11T03:10:05;19.30;;;11.73;;
4248;SDS011;8404;48.752;12.922;2022-12-11T03:12:36;19.27;;;11.80;;
4248;SDS011;8404;48.752;12.922;2022-12-11T03:15:10;20.23;;;12.02;;
4248;SDS011;8404;48.752;12.922;2022-12-11T03:17:43;19.80;;;11.93;;
4248;SDS011;8404;48.752;12.922;2022-12-11T03:20:19;19.45;;;11.90;;
4248;SDS011;8404;48.752;12.922;2022-12-11T03:22:56;20.00;;;12.43;;
4248;SDS011;8404;48.752;12.922;2022-12-11T03:25:29;16.65;;;10.77;;
4248;SDS011;8404;48.752;12.922;2022-12-11T03:28:02;20.25;;;12.07;;
4248;SDS011;8404;48.752;12.922;2022-12-11T03:30:36;18.75;;;10.30;;
4248;SDS011;8404;48.752;12.922;2022-12-11T03:33:08;23.13;;;14.50;;
4248;SDS011;8404;48.752;12.922;2022-12-11T03:35:40;23.27;;;12.52;;
4248;SDS011;8404;48.752;12.922;2022-12-11T03:38:12;21.35;;;12.35;;
4248;SDS011;8404;48.752;12.922;2022-12-11T03:40:45;18.52;;;11.93;;
4248;SDS011;8404;48.752;12.922;2022-12-11T03:43:17;23.00;;;13.27;;
4248;SDS011;8404;48.752;12.922;2022-12-11T03:45:48;20.60;;;12.48;;
4248;SDS011;8404;48.752;12.922;2022-12-11T03:48:18;20.05;;;13.25;;
4248;SDS011;8404;48.752;12.922;2022-12-11T03:50:47;17.83;;;11.77;;
4248;SDS011;8404;48.752;12.922;2022-12-11T03:53:16;18.67;;;11.85;;
4248;SDS011;8404;48.752;12.922;2022-12-11T03:55:46;19.42;;;12.27;;
4248;SDS011;8404;48.752;12.922;2022-12-11T03:58:16;21.02;;;11.65;;
4248;SDS011;8404;48.752;12.922;2022-12-11T04:00:44;21.13;;;13.25;;
4248;SDS011;8404;48.752;12.922;2022-12-11T04:03:13;19.38;;;12.63;;
4248;SDS011;8404;48.752;12.922;2022-12-11T04:05:44;19.48;;;11.70;;
4248;SDS011;8404;48.752;12.922;2022-12-11T04:08:13;20.60;;;13.45;;
4248;SDS011;8404;48.752;12.922;2022-12-11T04:10:41;21.40;;;12.85;;
4248;SDS011;8404;48.752;12.922;2022-12-11T04:13:09;20.02;;;12.85;;
4248;SDS011;8404;48.752;12.922;2022-12-11T04:15:38;21.08;;;12.02;;
4248;SDS011;8404;48.752;12.922;2022-12-11T04:18:06;22.27;;;13.25;;
4248;SDS011;8404;48.752;12.922;2022-12-11T04:20:53;24.00;;;13.38;;
4248;SDS011;8404;48.752;12.922;2022-12-11T04:23:40;23.52;;;12.93;;
4248;SDS011;8404;48.752;12.922;2022-12-11T04:26:25;25.05;;;13.32;;
4248;SDS011;8404;48.752;12.922;2022-12-11T04:28:54;23.67;;;13.63;;
4248;SDS011;8404;48.752;12.922;2022-12-11T04:31:22;23.73;;;13.80;;
4248;SDS011;8404;48.752;12.922;2022-12-11T04:33:50;24.88;;;13.95;;
4248;SDS011;8404;48.752;12.922;2022-12-11T04:36:19;21.55;;;13.63;;
4248;SDS011;8404;48.752;12.922;2022-12-11T04:38:48;21.73;;;13.23;;
4248;SDS011;8404;48.752;12.922;2022-12-11T04:41:16;25.45;;;13.10;;
4248;SDS011;8404;48.752;12.922;2022-12-11T04:43:44;22.75;;;13.40;;
4248;SDS011;8404;48.752;12.922;2022-12-11T04:46:13;26.10;;;13.95;;
4248;SDS011;8404;48.752;12.922;2022-12-11T04:48:42;19.70;;;13.18;;
4248;SDS011;8404;48.752;12.922;2022-12-11T04:51:11;22.60;;;12.45;;
4248;SDS011;8404;48.752;12.922;2022-12-11T04:53:40;25.35;;;14.43;;
4248;SDS011;8404;48.752;12.922;2022-12-11T04:56:10;23.88;;;14.52;;
4248;SDS011;8404;48.752;12.922;2022-12-11T04:58:40;25.27;;;12.82;;
4248;SDS011;8404;48.752;12.922;2022-12-11T05:01:09;26.50;;;14.68;;
4248;SDS011;8404;48.752;12.922;2022-12-11T05:03:38;26.15;;;14.20;;
4248;SDS011;8404;48.752;12.922;2022-12-11T05:06:07;22.15;;;12.88;;
4248;SDS011;8404;48.752;12.922;2022-12-11T05:08:37;23.80;;;13.90;;
4248;SDS011;8404;48.752;12.922;2022-12-11T05:11:08;27.42;;;14.25;;
4248;SDS011;8404;48.752;12.922;2022-12-11T05:13:38;25.52;;;14.45;;
4248;SDS011;8404;48.752;12.922;2022-12-11T05:16:07;22.10;;;13.45;;
4248;SDS011;8404;48.752;12.922;2022-12-11T05:18:36;22.60;;;12.68;;
4248;SDS011;8404;48.752;12.922;2022-12-11T05:21:06;27.42;;;14.25;;
4248;SDS011;8404;48.752;12.922;2022-12-11T05:23:35;27.00;;;14.55;;
4248;SDS011;8404;48.752;12.922;2022-12-11T05:26:04;20.77;;;12.50;;
4248;SDS011;8404;48.752;12.922;2022-12-11T05:28:36;30.60;;;16.15;;
4248;SDS011;8404;48.752;12.922;2022-12-11T05:31:06;23.80;;;14.13;;
4248;SDS011;8404;48.752;12.922;2022-12-11T05:33:35;26.70;;;14.25;;
4248;SDS011;8404;48.752;12.922;2022-12-11T05:36:04;26.75;;;15.25;;
4248;SDS011;8404;48.752;12.922;2022-12-11T05:38:33;25.02;;;14.82;;
4248;SDS011;8404;48.752;12.922;2022-12-11T05:41:02;26.02;;;14.90;;
4248;SDS011;8404;48.752;12.922;2022-12-11T05:43:32;28.40;;;15.93;;
4248;SDS011;8404;48.752;12.922;2022-12-11T05:46:07;24.23;;;14.90;;
4248;SDS011;8404;48.752;12.922;2022-12-11T05:48:36;25.02;;;14.55;;
4248;SDS011;8404;48.752;12.922;2022-12-11T05:51:05;28.50;;;15.88;;
4248;SDS011;8404;48.752;12.922;2022-12-11T05:53:34;25.30;;;14.05;;
4248;SDS011;8404;48.752;12.922;2022-12-11T05:56:04;24.13;;;14.63;;
4248;SDS011;8404;48.752;12.922;2022-12-11T05:58:34;29.23;;;15.80;;
4248;SDS011;8404;48.752;12.922;2022-12-11T06:01:07;30.17;;;15.60;;
4248;SDS011;8404;48.752;12.922;2022-12-11T06:03:36;30.00;;;15.80;;
4248;SDS011;8404;48.752;12.922;2022-12-11T06:06:04;25.65;;;14.43;;
4248;SDS011;8404;48.752;12.922;2022-12-11T06:08:33;28.13;;;14.38;;
4248;SDS011;8404;48.752;12.922;2022-12-11T06:11:02;25.48;;;14.93;;
4248;SDS011;8404;48.752;12.922;2022-12-11T06:13:31;23.70;;;14.07;;
4248;SDS011;8404;48.752;12.922;2022-12-11T06:16:00;25.45;;;14.95;;
4248;SDS011;8404;48.752;12.922;2022-12-11T06:18:30;26.80;;;15.25;;
4248;SDS011;8404;48.752;12.922;2022-12-11T06:21:09;28.65;;;16.63;;
4248;SDS011;8404;48.752;12.922;2022-12-11T06:23:38;27.70;;;14.68;;
4248;SDS011;8404;48.752;12.922;2022-12-11T06:26:06;25.95;;;15.43;;
4248;SDS011;8404;48.752;12.922;2022-12-11T06:28:34;27.67;;;15.23;;
4248;SDS011;8404;48.752;12.922;2022-12-11T06:31:03;27.70;;;16.52;;
4248;SDS011;8404;48.752;12.922;2022-12-11T06:33:33;25.13;;;13.77;;
4248;SDS011;8404;48.752;12.922;2022-12-11T06:36:02;28.00;;;15.43;;
4248;SDS011;8404;48.752;12.922;2022-12-11T06:38:31;27.83;;;15.98;;
4248;SDS011;8404;48.752;12.922;2022-12-11T06:41:00;30.90;;;16.95;;
4248;SDS011;8404;48.752;12.922;2022-12-11T06:43:37;30.05;;;15.73;;
4248;SDS011;8404;48.752;12.922;2022-12-11T06:46:06;25.95;;;14.93;;
4248;SDS011;8404;48.752;12.922;2022-12-11T06:48:37;24.48;;;14.27;;
4248;SDS011;8404;48.752;12.922;2022-12-11T06:51:09;28.60;;;15.05;;
4248;SDS011;8404;48.752;12.922;2022-12-11T06:53:38;28.70;;;15.20;;
4248;SDS011;8404;48.752;12.922;2022-12-11T06:56:07;24.05;;;14.25;;
4248;SDS011;8404;48.752;12.922;2022-12-11T06:58:36;26.50;;;14.63;;
4248;SDS011;8404;48.752;12.922;2022-12-11T07:01:12;25.23;;;15.40;;
4248;SDS011;8404;48.752;12.922;2022-12-11T07:03:44;29.77;;;16.50;;
4248;SDS011;8404;48.752;12.922;2022-12-11T07:06:13;27.45;;;15.40;;
4248;SDS011;8404;48.752;12.922;2022-12-11T07:08:41;23.20;;;14.75;;
4248;SDS011;8404;48.752;12.922;2022-12-11T07:11:11;32.92;;;17.77;;
4248;SDS011;8404;48.752;12.922;2022-12-11T07:13:40;30.85;;;17.00;;
4248;SDS011;8404;48.752;12.922;2022-12-11T07:16:10;32.03;;;16.25;;
4248;SDS011;8404;48.752;12.922;2022-12-11T07:18:39;29.15;;;16.38;;
4248;SDS011;8404;48.752;12.922;2022-12-11T07:21:10;30.98;;;16.63;;
4248;SDS011;8404;48.752;12.922;2022-12-11T07:23:39;28.58;;;15.40;;
4248;SDS011;8404;48.752;12.922;2022-12-11T07:26:08;23.92;;;14.60;;
4248;SDS011;8404;48.752;12.922;2022-12-11T07:28:38;27.23;;;14.38;;
4248;SDS011;8404;48.752;12.922;2022-12-11T07:31:06;27.95;;;15.90;;
4248;SDS011;8404;48.752;12.922;2022-12-11T07:33:35;29.48;;;15.40;;
4248;SDS011;8404;48.752;12.922;2022-12-11T07:36:04;34.13;;;15.82;;
4248;SDS011;8404;48.752;12.922;2022-12-11T07:38:35;26.33;;;15.40;;
4248;SDS011;8404;48.752;12.922;2022-12-11T07:41:04;25.13;;;15.10;;
4248;SDS011;8404;48.752;12.922;2022-12-11T07:43:34;25.67;;;14.50;;
4248;SDS011;8404;48.752;12.922;2022-12-11T07:46:03;29.67;;;17.35;;
4248;SDS011;8404;48.752;12.922;2022-12-11T07:48:35;32.50;;;16.17;;
4248;SDS011;8404;48.752;12.922;2022-12-11T07:51:07;25.13;;;14.93;;
4248;SDS011;8404;48.752;12.922;2022-12-11T07:53:38;25.48;;;14.88;;
4248;SDS011;8404;48.752;12.922;2022-12-11T07:56:06;29.55;;;16.83;;
4248;SDS011;8404;48.752;12.922;2022-12-11T07:58:35;29.52;;;16.17;;
4248;SDS011;8404;48.752;12.922;2022-12-11T08:01:04;33.45;;;16.67;;
4248;SDS011;8404;48.752;12.922;2022-12-11T08:03:32;25.40;;;14.93;;
4248;SDS011;8404;48.752;12.922;2022-12-11T08:06:00;32.13;;;16.73;;
4248;SDS011;8404;48.752;12.922;2022-12-11T08:08:28;28.23;;;15.30;;
4248;SDS011;8404;48.752;12.922;2022-12-11T08:11:00;24.90;;;15.60;;
4248;SDS011;8404;48.752;12.922;2022-12-11T08:13:28;27.83;;;14.75;;
4248;SDS011;8404;48.752;12.922;2022-12-11T08:15:56;26.88;;;16.25;;
4248;SDS011;8404;48.752;12.922;2022-12-11T08:18:24;25.40;;;14.77;;
4248;SDS011;8404;48.752;12.922;2022-12-11T08:20:53;28.10;;;15.93;;
4248;SDS011;8404;48.752;12.922;2022-12-11T08:23:22;34.70;;;21.95;;
4248;SDS011;8404;48.752;12.922;2022-12-11T08:25:50;33.33;;;16.90;;
4248;SDS011;8404;48.752;12.922;2022-12-11T08:28:28;28.08;;;18.67;;
4248;SDS011;8404;48.752;12.922;2022-12-11T08:30:56;29.73;;;16.75;;
4248;SDS011;8404;48.752;12.922;2022-12-11T08:33:26;26.23;;;15.45;;
4248;SDS011;8404;48.752;12.922;2022-12-11T08:35:54;28.50;;;15.85;;
4248;SDS011;8404;48.752;12.922;2022-12-11T08:38:22;29.27;;;14.95;;
4248;SDS011;8404;48.752;12.922;2022-12-11T08:40:51;26.80;;;15.88;;
4248;SDS011;8404;48.752;12.922;2022-12-11T08:43:19;26.38;;;14.80;;
4248;SDS011;8404;48.752;12.922;2022-12-11T08:45:48;28.00;;;16.77;;
4248;SDS011;8404;48.752;12.922;2022-12-11T08:48:16;28.77;;;16.10;;
4248;SDS011;8404;48.752;12.922;2022-12-11T08:50:44;38.65;;;26.05;;
4248;SDS011;8404;48.752;12.922;2022-12-11T08:53:12;27.95;;;16.77;;
4248;SDS011;8404;48.752;12.922;2022-12-11T08:55:40;28.38;;;16.90;;
4248;SDS011;8404;48.752;12.922;2022-12-11T08:58:08;29.85;;;16.15;;
4248;SDS011;8404;48.752;12.922;2022-12-11T09:00:37;27.98;;;17.50;;
4248;SDS011;8404;48.752;12.922;2022-12-11T09:03:06;30.00;;;18.15;;
4248;SDS011;8404;48.752;12.922;2022-12-11T09:05:38;30.50;;;18.25;;
4248;SDS011;8404;48.752;12.922;2022-12-11T09:08:06;28.48;;;17.35;;
4248;SDS011;8404;48.752;12.922;2022-12-11T09:10:34;31.67;;;17.90;;
4248;SDS011;8404;48.752;12.922;2022-12-11T09:13:02;27.65;;;16.30;;
4248;SDS011;8404;48.752;12.922;2022-12-11T09:15:31;26.38;;;16.70;;
4248;SDS011;8404;48.752;12.922;2022-12-11T09:17:59;32.38;;;18.40;;
4248;SDS011;8404;48.752;12.922;2022-12-11T09:20:28;32.17;;;19.80;;
4248;SDS011;8404;48.752;12.922;2022-12-11T09:22:56;32.15;;;18.17;;
4248;SDS011;8404;48.752;12.922;2022-12-11T09:25:24;29.08;;;16.40;;
4248;SDS011;8404;48.752;12.922;2022-12-11T09:27:52;25.85;;;15.57;;
4248;SDS011;8404;48.752;12.922;2022-12-11T09:30:20;28.77;;;16.25;;
4248;SDS011;8404;48.752;12.922;2022-12-11T09:32:48;28.35;;;17.65;;
4248;SDS011;8404;48.752;12.922;2022-12-11T09:35:16;29.73;;;16.70;;
4248;SDS011;8404;48.752;12.922;2022-12-11T09:37:49;28.80;;;14.98;;
4248;SDS011;8404;48.752;12.922;2022-12-11T09:40:20;22.10;;;13.50;;
4248;SDS011;8404;48.752;12.922;2022-12-11T09:42:49;20.15;;;12.77;;
4248;SDS011;8404;48.752;12.922;2022-12-11T09:45:23;25.83;;;15.52;;
4248;SDS011;8404;48.752;12.922;2022-12-11T09:47:52;20.02;;;12.70;;
4248;SDS011;8404;48.752;12.922;2022-12-11T09:50:23;19.55;;;12.88;;
4248;SDS011;8404;48.752;12.922;2022-12-11T09:53:01;18.58;;;12.35;;
4248;SDS011;8404;48.752;12.922;2022-12-11T09:55:37;25.60;;;16.90;;
4248;SDS011;8404;48.752;12.922;2022-12-11T09:58:12;23.40;;;15.27;;
4248;SDS011;8404;48.752;12.922;2022-12-11T10:00:50;20.70;;;13.75;;
4248;SDS011;8404;48.752;12.922;2022-12-11T10:03:37;20.95;;;13.68;;
4248;SDS011;8404;48.752;12.922;2022-12-11T10:06:19;23.75;;;14.25;;
4248;SDS011;8404;48.752;12.922;2022-12-11T10:08:59;20.40;;;12.80;;
4248;SDS011;8404;48.752;12.922;2022-12-11T10:11:41;19.67;;;13.48;;
4248;SDS011;8404;48.752;12.922;2022-12-11T10:14:24;17.02;;;10.63;;
4248;SDS011;8404;48.752;12.922;2022-12-11T10:16:58;16.02;;;10.07;;
4248;SDS011;8404;48.752;12.922;2022-12-11T10:19:31;15.52;;;10.60;;
4248;SDS011;8404;48.752;12.922;2022-12-11T10:22:01;10.93;;;8.40;;
4248;SDS011;8404;48.752;12.922;2022-12-11T10:24:33;12.77;;;9.55;;
4248;SDS011;8404;48.752;12.922;2022-12-11T10:27:27;13.05;;;9.70;;
4248;SDS011;8404;48.752;12.922;2022-12-11T10:30:00;10.65;;;7.60;;
4248;SDS011;8404;48.752;12.922;2022-12-11T10:32:37;11.80;;;8.25;;
4248;SDS011;8404;48.752;12.922;2022-12-11T10:35:12;11.75;;;8.70;;
4248;SDS011;8404;48.752;12.922;2022-12-11T10:37:46;14.23;;;9.35;;
4248;SDS011;8404;48.752;12.922;2022-12-11T10:40:16;13.55;;;9.02;;
4248;SDS011;8404;48.752;12.922;2022-12-11T10:42:53;13.32;;;9.55;;
4248;SDS011;8404;48.752;12.922;2022-12-11T10:45:21;12.48;;;8.40;;
4248;SDS011;8404;48.752;12.922;2022-12-11T10:47:49;15.45;;;10.93;;
4248;SDS011;8404;48.752;12.922;2022-12-11T10:50:27;19.30;;;12.80;;
4248;SDS011;8404;48.752;12.922;2022-12-11T10:52:55;16.02;;;9.88;;
4248;SDS011;8404;48.752;12.922;2022-12-11T10:55:26;15.70;;;10.10;;
4248;SDS011;8404;48.752;12.922;2022-12-11T10:57:58;12.57;;;8.77;;
4248;SDS011;8404;48.752;12.922;2022-12-11T11:00:59;15.23;;;9.80;;
4248;SDS011;8404;48.752;12.922;2022-12-11T11:03:31;12.73;;;9.57;;
4248;SDS011;8404;48.752;12.922;2022-12-11T11:06:02;14.55;;;10.02;;
4248;SDS011;8404;48.752;12.922;2022-12-11T11:08:39;16.33;;;10.73;;
4248;SDS011;8404;48.752;12.922;2022-12-11T11:11:19;14.45;;;9.75;;
4248;SDS011;8404;48.752;12.922;2022-12-11T11:13:50;13.35;;;9.13;;
4248;SDS011;8404;48.752;12.922;2022-12-11T11:16:19;15.65;;;10.98;;
4248;SDS011;8404;48.752;12.922;2022-12-11T11:18:50;14.73;;;10.35;;
4248;SDS011;8404;48.752;12.922;2022-12-11T11:21:20;18.17;;;12.02;;
4248;SDS011;8404;48.752;12.922;2022-12-11T11:23:50;25.75;;;17.67;;
4248;SDS011;8404;48.752;12.922;2022-12-11T11:26:21;19.00;;;11.98;;
4248;SDS011;8404;48.752;12.922;2022-12-11T11:29:14;21.58;;;14.68;;
4248;SDS011;8404;48.752;12.922;2022-12-11T11:31:52;25.02;;;17.08;;
4248;SDS011;8404;48.752;12.922;2022-12-11T11:34:20;21.08;;;12.68;;
4248;SDS011;8404;48.752;12.922;2022-12-11T11:36:54;19.58;;;13.27;;
4248;SDS011;8404;48.752;12.922;2022-12-11T11:39:25;20.63;;;11.98;;
4248;SDS011;8404;48.752;12.922;2022-12-11T11:42:14;17.83;;;11.90;;
4248;SDS011;8404;48.752;12.922;2022-12-11T11:44:48;19.98;;;11.35;;
4248;SDS011;8404;48.752;12.922;2022-12-11T11:47:27;15.43;;;10.70;;
4248;SDS011;8404;48.752;12.922;2022-12-11T11:50:03;16.20;;;10.35;;
4248;SDS011;8404;48.752;12.922;2022-12-11T11:52:35;16.85;;;10.93;;
4248;SDS011;8404;48.752;12.922;2022-12-11T11:55:13;18.00;;;11.77;;
4248;SDS011;8404;48.752;12.922;2022-12-11T11:57:52;17.50;;;11.27;;
4248;SDS011;8404;48.752;12.922;2022-12-11T12:00:24;14.32;;;10.02;;
4248;SDS011;8404;48.752;12.922;2022-12-11T12:02:59;18.67;;;11.10;;
4248;SDS011;8404;48.752;12.922;2022-12-11T12:05:33;18.95;;;11.95;;
4248;SDS011;8404;48.752;12.922;2022-12-11T12:08:07;16.67;;;10.40;;
4248;SDS011;8404;48.752;12.922;2022-12-11T12:10:41;16.63;;;12.20;;
4248;SDS011;8404;48.752;12.922;2022-12-11T12:13:19;16.52;;;11.50;;
4248;SDS011;8404;48.752;12.922;2022-12-11T12:16:14;18.15;;;10.93;;
4248;SDS011;8404;48.752;12.922;2022-12-11T12:19:11;14.30;;;10.57;;
4248;SDS011;8404;48.752;12.922;2022-12-11T12:22:13;13.95;;;9.50;;
4248;SDS011;8404;48.752;12.922;2022-12-11T12:24:53;12.43;;;9.50;;
4248;SDS011;8404;48.752;12.922;2022-12-11T12:27:30;16.85;;;10.75;;
4248;SDS011;8404;48.752;12.922;2022-12-11T12:30:21;14.55;;;9.88;;
4248;SDS011;8404;48.752;12.922;2022-12-11T12:32:53;13.90;;;9.30;;
4248;SDS011;8404;48.752;12.922;2022-12-11T12:35:34;13.32;;;10.38;;
4248;SDS011;8404;48.752;12.922;2022-12-11T12:38:09;17.48;;;10.77;;
4248;SDS011;8404;48.752;12.922;2022-12-11T12:40:50;18.08;;;10.98;;
4248;SDS011;8404;48.752;12.922;2022-12-11T12:43:40;15.88;;;11.00;;
4248;SDS011;8404;48.752;12.922;2022-12-11T12:46:23;15.32;;;10.40;;
4248;SDS011;8404;48.752;12.922;2022-12-11T12:48:59;13.73;;;9.40;;
4248;SDS011;8404;48.752;12.922;2022-12-11T12:51:29;14.95;;;9.82;;
4248;SDS011;8404;48.752;12.922;2022-12-11T12:53:58;19.02;;;12.05;;
4248;SDS011;8404;48.752;12.922;2022-12-11T12:56:37;14.18;;;10.32;;
4248;SDS011;8404;48.752;12.922;2022-12-11T12:59:17;18.45;;;11.20;;
4248;SDS011;8404;48.752;12.922;2022-12-11T13:01:49;17.08;;;10.15;;
4248;SDS011;8404;48.752;12.922;2022-12-11T13:04:27;14.38;;;10.20;;
4248;SDS011;8404;48.752;12.922;2022-12-11T13:07:22;18.27;;;10.07;;
4248;SDS011;8404;48.752;12.922;2022-12-11T13:09:56;15.02;;;10.80;;
4248;SDS011;8404;48.752;12.922;2022-12-11T13:12:39;14.85;;;10.15;;
4248;SDS011;8404;48.752;12.922;2022-12-11T13:20:59;14.73;;;9.68;;
4248;SDS011;8404;48.752;12.922;2022-12-11T13:23:29;15.18;;;9.95;;
4248;SDS011;8404;48.752;12.922;2022-12-11T13:25:58;12.80;;;8.52;;
4248;SDS011;8404;48.752;12.922;2022-12-11T13:28:29;11.93;;;9.27;;
4248;SDS011;8404;48.752;12.922;2022-12-11T13:31:01;14.00;;;10.07;;
4248;SDS011;8404;48.752;12.922;2022-12-11T13:33:36;14.40;;;9.20;;
4248;SDS011;8404;48.752;12.922;2022-12-11T13:36:21;14.23;;;9.38;;
4248;SDS011;8404;48.752;12.922;2022-12-11T13:38:58;56.22;;;33.72;;
4248;SDS011;8404;48.752;12.922;2022-12-11T13:41:28;15.57;;;11.20;;
4248;SDS011;8404;48.752;12.922;2022-12-11T13:44:00;12.70;;;9.40;;
4248;SDS011;8404;48.752;12.922;2022-12-11T13:46:29;13.98;;;9.57;;
4248;SDS011;8404;48.752;12.922;2022-12-11T13:49:03;14.35;;;10.15;;
4248;SDS011;8404;48.752;12.922;2022-12-11T13:51:32;12.30;;;8.73;;
4248;SDS011;8404;48.752;12.922;2022-12-11T13:54:11;18.83;;;8.52;;
4248;SDS011;8404;48.752;12.922;2022-12-11T13:56:52;11.70;;;7.30;;
4248;SDS011;8404;48.752;12.922;2022-12-11T13:59:30;8.50;;;7.45;;
4248;SDS011;8404;48.752;12.922;2022-12-11T14:02:01;12.55;;;8.88;;
4248;SDS011;8404;48.752;12.922;2022-12-11T14:04:41;10.52;;;8.50;;
4248;SDS011;8404;48.752;12.922;2022-12-11T14:07:09;13.52;;;10.52;;
4248;SDS011;8404;48.752;12.922;2022-12-11T14:09:38;14.50;;;9.73;;
4248;SDS011;8404;48.752;12.922;2022-12-11T14:12:13;11.10;;;7.60;;
4248;SDS011;8404;48.752;12.922;2022-12-11T14:14:44;13.48;;;9.40;;
4248;SDS011;8404;48.752;12.922;2022-12-11T14:17:22;22.95;;;17.73;;
4248;SDS011;8404;48.752;12.922;2022-12-11T14:19:54;18.65;;;11.68;;
4248;SDS011;8404;48.752;12.922;2022-12-11T14:22:47;50.33;;;32.92;;
4248;SDS011;8404;48.752;12.922;2022-12-11T14:25:18;11.27;;;8.30;;
4248;SDS011;8404;48.752;12.922;2022-12-11T14:27:49;13.95;;;8.23;;
4248;SDS011;8404;48.752;12.922;2022-12-11T14:30:19;20.67;;;14.68;;
4248;SDS011;8404;48.752;12.922;2022-12-11T14:32:49;33.60;;;27.38;;
4248;SDS011;8404;48.752;12.922;2022-12-11T14:35:23;14.52;;;12.63;;
4248;SDS011;8404;48.752;12.922;2022-12-11T14:37:57;11.15;;;8.60;;
4248;SDS011;8404;48.752;12.922;2022-12-11T14:40:30;15.25;;;11.07;;
4248;SDS011;8404;48.752;12.922;2022-12-11T14:43:05;11.32;;;7.85;;
4248;SDS011;8404;48.752;12.922;2022-12-11T14:45:38;19.85;;;14.93;;
4248;SDS011;8404;48.752;12.922;2022-12-11T14:48:11;14.55;;;11.35;;
4248;SDS011;8404;48.752;12.922;2022-12-11T14:50:48;12.13;;;8.80;;
4248;SDS011;8404;48.752;12.922;2022-12-11T14:53:19;14.27;;;10.77;;
4248;SDS011;8404;48.752;12.922;2022-12-11T14:55:49;13.77;;;10.30;;
4248;SDS011;8404;48.752;12.922;2022-12-11T14:58:20;18.92;;;12.35;;
4248;SDS011;8404;48.752;12.922;2022-12-11T15:00:57;14.50;;;9.23;;
4248;SDS011;8404;48.752;12.922;2022-12-11T15:03:29;15.23;;;10.27;;
4248;SDS011;8404;48.752;12.922;2022-12-11T15:06:01;12.73;;;8.48;;
4248;SDS011;8404;48.752;12.922;2022-12-11T15:08:47;11.32;;;9.32;;
4248;SDS011;8404;48.752;12.922;2022-12-11T15:11:15;14.48;;;9.65;;